Hattiesburg South, Mississippi
Current Conditions -  °F | °C
As of 7:53 PM on Monday 24 Nov 2014 (Local Time) from KHBG Reporting Station
Clear Clear  
Wind Chill: 55°   Ceiling: Unl
Heat Index: 55°   Visibility: 10mi
Dew Point: 39°   Wind: 5mph
Humidity: 55%   Direction: 350°N
Pressure: 30.03"   Gusts: NA
Location:  31.1996°N, 89.2694°W
Report Text: KHBG 250153Z AUTO 35004KT 10SM CLR 13/04 A3003 RMK AO2 SLP167 T01280039
Loading
Personal Weather Stations






























Interactive Weather Map New forecast layout! Learn more

10-Day Weather Forecast

Advertisements
Track Severe Weather on mobile